createdAt,value
2022-11-13T15:21:51.019Z,22.60
2022-11-13T15:25:19.588Z,20.08
2022-11-13T15:28:25.811Z,35.42
2022-11-13T15:31:35.505Z,28.95
2022-11-13T15:34:43.916Z,29.65
2022-11-13T15:37:50.550Z,35.00
2022-11-13T15:40:57.019Z,25.08
2022-11-13T15:44:10.553Z,39.42
2022-11-13T15:47:36.995Z,31.27
2022-11-13T15:50:43.052Z,31.98
2022-11-13T15:53:54.755Z,37.42
2022-11-13T15:57:00.777Z,39.13
2022-11-13T16:00:14.575Z,42.47
2022-11-13T16:03:20.751Z,40.42
2022-11-13T16:06:28.286Z,47.33
2022-11-13T16:09:34.577Z,54.85
2022-11-13T16:12:42.331Z,67.63
2022-11-13T16:15:49.586Z,112.45
2022-11-13T16:19:00.203Z,123.53
2022-11-13T16:22:18.185Z,143.30
2022-11-13T16:25:24.660Z,233.65
2022-11-13T16:28:34.145Z,187.02
2022-11-13T16:31:43.597Z,181.95
2022-11-13T16:34:52.240Z,154.80
2022-11-13T16:38:00.386Z,126.53
2022-11-13T16:41:11.094Z,112.32
2022-11-13T16:44:17.010Z,132.77
2022-11-13T16:47:26.154Z,124.85
2022-11-13T16:50:34.072Z,281.83
2022-11-13T16:53:40.149Z,279.95
2022-11-13T16:56:46.587Z,146.15
2022-11-13T16:59:52.523Z,175.60
2022-11-13T17:02:58.906Z,203.77
2022-11-13T17:06:05.171Z,211.68
2022-11-13T17:09:11.900Z,236.70
2022-11-13T17:12:21.888Z,190.25
2022-11-13T17:15:29.386Z,176.48
2022-11-13T17:18:37.810Z,171.02
2022-11-13T17:21:44.887Z,199.45
2022-11-13T17:24:51.389Z,255.93
2022-11-13T17:27:57.552Z,232.55
2022-11-13T17:31:08.878Z,227.15
2022-11-13T17:34:15.275Z,221.33
2022-11-13T17:37:25.067Z,244.50
2022-11-13T17:40:32.609Z,258.88
2022-11-13T17:43:40.389Z,228.73
2022-11-13T17:46:47.815Z,253.13
2022-11-13T17:50:02.429Z,243.63
2022-11-13T17:53:11.624Z,217.68
2022-11-13T17:56:20.378Z,212.80
2022-11-13T17:59:26.221Z,168.55
2022-11-13T18:02:32.176Z,135.57
2022-11-13T18:05:40.831Z,148.52
2022-11-13T18:08:47.427Z,184.18
2022-11-13T18:11:53.654Z,145.50
2022-11-13T18:14:59.899Z,176.07
2022-11-13T18:18:09.544Z,163.18
2022-11-13T18:21:23.161Z,150.38
2022-11-13T18:24:30.258Z,143.10
2022-11-13T18:27:37.304Z,127.45
2022-11-13T18:30:45.042Z,114.78
2022-11-13T18:33:51.934Z,105.20
2022-11-13T18:36:59.231Z,99.70
2022-11-13T18:40:06.155Z,104.78
2022-11-13T18:43:11.866Z,105.72
2022-11-13T18:46:20.439Z,105.65
2022-11-13T18:49:26.361Z,121.82
2022-11-13T18:52:33.704Z,112.88
2022-11-13T18:55:39.956Z,117.57
2022-11-13T18:58:50.360Z,162.55
2022-11-13T19:01:56.760Z,153.90
2022-11-13T19:05:02.746Z,158.43
2022-11-13T19:08:08.890Z,172.23
2022-11-13T19:11:18.038Z,156.90
2022-11-13T19:14:23.941Z,134.90
2022-11-13T19:17:30.505Z,127.10
2022-11-13T19:20:39.476Z,109.65
2022-11-13T19:23:45.936Z,115.90
2022-11-13T19:26:51.837Z,122.00
2022-11-13T19:29:59.015Z,115.00
2022-11-13T19:33:05.408Z,136.32
2022-11-13T19:36:17.657Z,128.45
2022-11-13T19:39:23.907Z,118.32
2022-11-13T19:42:29.911Z,98.80
2022-11-13T19:45:36.530Z,104.15
2022-11-13T19:48:44.641Z,99.47
2022-11-13T19:51:50.697Z,85.43
2022-11-13T19:54:57.080Z,88.32
2022-11-13T19:58:03.085Z,90.53
2022-11-13T20:01:11.623Z,105.93
2022-11-13T20:04:17.907Z,98.13
2022-11-13T20:07:24.057Z,81.47
2022-11-13T20:10:31.473Z,82.38
2022-11-13T20:13:39.474Z,67.35
2022-11-13T20:16:45.499Z,65.05
2022-11-13T20:19:51.769Z,64.30
2022-11-13T20:22:58.512Z,62.38
2022-11-13T20:26:07.946Z,58.15
2022-11-13T20:29:14.255Z,57.03
2022-11-13T20:32:20.786Z,51.50
2022-11-13T20:35:26.844Z,53.42
2022-11-13T20:38:32.894Z,51.42
2022-11-13T20:41:38.891Z,52.40
2022-11-13T20:44:44.807Z,58.08
2022-11-13T20:47:53.786Z,76.00
2022-11-13T20:51:06.528Z,79.72
2022-11-13T20:54:12.735Z,77.00
2022-11-13T20:57:21.492Z,81.95
2022-11-13T21:00:27.558Z,78.15
2022-11-13T21:03:40.012Z,70.75
2022-11-13T21:06:47.783Z,75.43
2022-11-13T21:09:53.756Z,65.72
2022-11-13T21:13:00.085Z,94.72
2022-11-13T21:16:08.365Z,121.63
2022-11-13T21:19:14.361Z,106.82
2022-11-13T21:22:20.327Z,103.53
2022-11-13T21:25:26.605Z,105.05
2022-11-13T21:28:33.962Z,105.50
2022-11-13T21:31:40.047Z,124.15
2022-11-13T21:34:46.719Z,99.72
2022-11-13T21:37:53.192Z,107.57
2022-11-13T21:41:19.030Z,93.22
2022-11-13T21:44:25.079Z,90.03
2022-11-13T21:47:31.159Z,98.28
2022-11-13T21:50:37.087Z,90.72
2022-11-13T21:53:43.333Z,96.85
2022-11-13T21:56:49.525Z,74.35
2022-11-13T21:59:55.774Z,64.78
2022-11-13T22:03:02.184Z,56.83
2022-11-13T22:06:22.323Z,55.10
2022-11-13T22:09:28.540Z,64.80
2022-11-13T22:12:34.892Z,73.72
2022-11-13T22:15:41.136Z,102.30
2022-11-13T22:18:47.567Z,87.03
2022-11-13T22:21:54.362Z,72.07
2022-11-13T22:25:00.663Z,52.22
2022-11-13T22:28:06.704Z,46.42
2022-11-13T22:31:32.263Z,41.58
2022-11-13T22:34:38.162Z,40.22
2022-11-13T22:37:44.248Z,43.15
2022-11-13T22:40:50.522Z,40.60
2022-11-13T22:43:59.948Z,60.55
2022-11-13T22:47:06.196Z,68.93
2022-11-13T22:50:12.373Z,82.30
2022-11-13T22:53:18.690Z,86.43
2022-11-13T22:56:28.705Z,65.72
2022-11-13T22:59:34.786Z,69.65
2022-11-13T23:02:46.954Z,55.28
2022-11-13T23:05:53.051Z,55.42
2022-11-13T23:09:00.461Z,47.35
2022-11-13T23:12:06.773Z,48.13
2022-11-13T23:15:13.045Z,32.35
2022-11-13T23:18:19.006Z,42.65
2022-11-13T23:21:26.682Z,76.22
2022-11-13T23:24:33.510Z,86.18
2022-11-13T23:27:39.655Z,100.72
2022-11-13T23:30:46.065Z,86.60
2022-11-13T23:33:52.324Z,101.00
2022-11-13T23:36:58.456Z,88.57
2022-11-13T23:40:04.980Z,97.25
2022-11-13T23:43:11.647Z,73.10
2022-11-13T23:46:17.617Z,53.17
2022-11-13T23:49:24.041Z,45.58
2022-11-13T23:52:29.876Z,39.47
2022-11-13T23:55:38.196Z,43.97
2022-11-13T23:58:44.156Z,36.45
